sensor_id;sensor_type;location;lat;lon;timestamp;temperature;humidity
22224;DHT22;11281;52.194;21.006;2023-08-20T00:01:05;18.80;99.90
22224;DHT22;11281;52.194;21.006;2023-08-20T00:05:07;18.80;99.90
22224;DHT22;11281;52.194;21.006;2023-08-20T00:09:09;18.70;99.90
22224;DHT22;11281;52.194;21.006;2023-08-20T00:13:10;18.70;99.90
22224;DHT22;11281;52.194;21.006;2023-08-20T00:17:12;18.70;99.90
22224;DHT22;11281;52.194;21.006;2023-08-20T00:21:14;18.70;99.90
22224;DHT22;11281;52.194;21.006;2023-08-20T00:25:17;18.60;99.90
22224;DHT22;11281;52.194;21.006;2023-08-20T00:29:19;18.50;99.90
22224;DHT22;11281;52.194;21.006;2023-08-20T00:33:20;18.50;99.90
22224;DHT22;11281;52.194;21.006;2023-08-20T00:37:22;18.50;99.90
22224;DHT22;11281;52.194;21.006;2023-08-20T00:41:24;18.40;99.90
22224;DHT22;11281;52.194;21.006;2023-08-20T00:45:26;18.50;99.90
22224;DHT22;11281;52.194;21.006;2023-08-20T00:49:29;18.40;99.90
22224;DHT22;11281;52.194;21.006;2023-08-20T00:53:32;18.40;99.90
22224;DHT22;11281;52.194;21.006;2023-08-20T00:57:35;18.40;99.90
22224;DHT22;11281;52.194;21.006;2023-08-20T01:01:38;18.30;99.90
22224;DHT22;11281;52.194;21.006;2023-08-20T01:05:51;18.30;99.90
22224;DHT22;11281;52.194;21.006;2023-08-20T01:14:17;18.20;99.90
22224;DHT22;11281;52.194;21.006;2023-08-20T01:18:19;18.20;99.90
22224;DHT22;11281;52.194;21.006;2023-08-20T01:22:34;18.20;99.90
22224;DHT22;11281;52.194;21.006;2023-08-20T01:31:03;18.20;99.90
22224;DHT22;11281;52.194;21.006;2023-08-20T01:35:05;18.20;99.90
22224;DHT22;11281;52.194;21.006;2023-08-20T01:39:07;18.20;99.90
22224;DHT22;11281;52.194;21.006;2023-08-20T01:43:09;18.20;99.90
22224;DHT22;11281;52.194;21.006;2023-08-20T01:47:10;18.10;99.90
22224;DHT22;11281;52.194;21.006;2023-08-20T01:51:12;18.10;99.90
22224;DHT22;11281;52.194;21.006;2023-08-20T01:55:13;18.10;99.90
22224;DHT22;11281;52.194;21.006;2023-08-20T01:59:15;18.00;99.90
22224;DHT22;11281;52.194;21.006;2023-08-20T02:03:17;18.00;99.90
22224;DHT22;11281;52.194;21.006;2023-08-20T02:07:18;18.00;99.90
22224;DHT22;11281;52.194;21.006;2023-08-20T02:11:20;18.10;99.90
22224;DHT22;11281;52.194;21.006;2023-08-20T02:15:22;18.10;99.90
22224;DHT22;11281;52.194;21.006;2023-08-20T02:19:24;18.00;99.90
22224;DHT22;11281;52.194;21.006;2023-08-20T02:23:25;18.00;99.90
22224;DHT22;11281;52.194;21.006;2023-08-20T02:27:27;18.00;99.90
22224;DHT22;11281;52.194;21.006;2023-08-20T02:31:29;18.00;99.90
22224;DHT22;11281;52.194;21.006;2023-08-20T02:35:31;18.00;99.90
22224;DHT22;11281;52.194;21.006;2023-08-20T02:39:33;18.00;99.90
22224;DHT22;11281;52.194;21.006;2023-08-20T02:43:35;18.00;99.90
22224;DHT22;11281;52.194;21.006;2023-08-20T02:47:37;17.90;99.90
22224;DHT22;11281;52.194;21.006;2023-08-20T02:51:39;18.00;99.90
22224;DHT22;11281;52.194;21.006;2023-08-20T02:55:43;17.90;99.90
22224;DHT22;11281;52.194;21.006;2023-08-20T02:59:45;17.90;99.90
22224;DHT22;11281;52.194;21.006;2023-08-20T03:03:47;17.80;99.90
22224;DHT22;11281;52.194;21.006;2023-08-20T03:07:49;17.80;99.90
22224;DHT22;11281;52.194;21.006;2023-08-20T03:11:51;17.80;99.90
22224;DHT22;11281;52.194;21.006;2023-08-20T03:15:53;17.80;99.90
22224;DHT22;11281;52.194;21.006;2023-08-20T03:19:59;17.70;99.90
22224;DHT22;11281;52.194;21.006;2023-08-20T03:24:01;17.80;99.90
22224;DHT22;11281;52.194;21.006;2023-08-20T03:28:03;17.80;99.90
22224;DHT22;11281;52.194;21.006;2023-08-20T03:32:05;17.70;99.90
22224;DHT22;11281;52.194;21.006;2023-08-20T03:36:07;17.70;99.90
22224;DHT22;11281;52.194;21.006;2023-08-20T03:40:09;17.70;99.90
22224;DHT22;11281;52.194;21.006;2023-08-20T03:44:11;17.70;99.90
22224;DHT22;11281;52.194;21.006;2023-08-20T03:48:14;17.70;99.90
22224;DHT22;11281;52.194;21.006;2023-08-20T03:52:15;17.70;99.90
22224;DHT22;11281;52.194;21.006;2023-08-20T03:56:17;17.70;99.90
22224;DHT22;11281;52.194;21.006;2023-08-20T04:00:19;17.70;99.90
22224;DHT22;11281;52.194;21.006;2023-08-20T04:04:20;17.80;99.90
22224;DHT22;11281;52.194;21.006;2023-08-20T04:08:22;17.80;99.90
22224;DHT22;11281;52.194;21.006;2023-08-20T04:12:24;17.80;99.90
22224;DHT22;11281;52.194;21.006;2023-08-20T04:16:26;17.90;99.90
22224;DHT22;11281;52.194;21.006;2023-08-20T04:20:28;17.90;99.90
22224;DHT22;11281;52.194;21.006;2023-08-20T04:24:30;18.00;99.90
22224;DHT22;11281;52.194;21.006;2023-08-20T04:28:31;18.10;99.90
22224;DHT22;11281;52.194;21.006;2023-08-20T04:32:33;18.20;99.90
22224;DHT22;11281;52.194;21.006;2023-08-20T04:36:35;18.20;99.90
22224;DHT22;11281;52.194;21.006;2023-08-20T04:40:37;18.30;99.90
22224;DHT22;11281;52.194;21.006;2023-08-20T04:44:39;18.40;99.90
22224;DHT22;11281;52.194;21.006;2023-08-20T04:48:41;18.50;99.90
22224;DHT22;11281;52.194;21.006;2023-08-20T04:52:43;18.60;99.90
22224;DHT22;11281;52.194;21.006;2023-08-20T04:56:45;18.70;99.90
22224;DHT22;11281;52.194;21.006;2023-08-20T05:00:47;18.80;99.90
22224;DHT22;11281;52.194;21.006;2023-08-20T05:04:49;18.90;99.90
22224;DHT22;11281;52.194;21.006;2023-08-20T05:08:51;19.00;99.90
22224;DHT22;11281;52.194;21.006;2023-08-20T05:12:53;19.10;99.90
22224;DHT22;11281;52.194;21.006;2023-08-20T05:16:55;19.20;99.90
22224;DHT22;11281;52.194;21.006;2023-08-20T05:20:57;19.40;99.90
22224;DHT22;11281;52.194;21.006;2023-08-20T05:24:59;19.50;99.90
22224;DHT22;11281;52.194;21.006;2023-08-20T05:29:00;19.60;99.90
22224;DHT22;11281;52.194;21.006;2023-08-20T05:33:02;19.70;99.90
22224;DHT22;11281;52.194;21.006;2023-08-20T05:37:04;19.90;99.90
22224;DHT22;11281;52.194;21.006;2023-08-20T05:41:06;20.00;99.90
22224;DHT22;11281;52.194;21.006;2023-08-20T05:45:09;20.10;99.90
22224;DHT22;11281;52.194;21.006;2023-08-20T05:49:11;20.20;99.90
22224;DHT22;11281;52.194;21.006;2023-08-20T05:53:17;20.20;99.90
22224;DHT22;11281;52.194;21.006;2023-08-20T05:57:18;20.40;99.90
22224;DHT22;11281;52.194;21.006;2023-08-20T06:01:20;20.60;99.90
22224;DHT22;11281;52.194;21.006;2023-08-20T06:05:22;20.70;99.90
22224;DHT22;11281;52.194;21.006;2023-08-20T06:09:24;20.80;99.90
22224;DHT22;11281;52.194;21.006;2023-08-20T06:13:26;21.00;99.90
22224;DHT22;11281;52.194;21.006;2023-08-20T06:17:28;21.10;99.90
22224;DHT22;11281;52.194;21.006;2023-08-20T06:21:30;21.30;99.90
22224;DHT22;11281;52.194;21.006;2023-08-20T06:25:32;21.80;99.90
22224;DHT22;11281;52.194;21.006;2023-08-20T06:29:33;22.50;99.90
22224;DHT22;11281;52.194;21.006;2023-08-20T06:33:35;23.10;99.90
22224;DHT22;11281;52.194;21.006;2023-08-20T06:37:39;23.70;99.90
22224;DHT22;11281;52.194;21.006;2023-08-20T06:41:41;24.00;99.90
22224;DHT22;11281;52.194;21.006;2023-08-20T06:45:43;24.50;99.90
22224;DHT22;11281;52.194;21.006;2023-08-20T06:49:45;24.80;99.90
22224;DHT22;11281;52.194;21.006;2023-08-20T06:53:48;24.80;99.90
22224;DHT22;11281;52.194;21.006;2023-08-20T06:57:50;25.00;99.90
22224;DHT22;11281;52.194;21.006;2023-08-20T07:01:52;25.10;99.90
22224;DHT22;11281;52.194;21.006;2023-08-20T07:05:53;25.30;99.90
22224;DHT22;11281;52.194;21.006;2023-08-20T07:09:55;25.20;99.90
22224;DHT22;11281;52.194;21.006;2023-08-20T07:13:57;25.30;99.90
22224;DHT22;11281;52.194;21.006;2023-08-20T07:17:58;25.50;99.90
22224;DHT22;11281;52.194;21.006;2023-08-20T07:22:00;25.60;99.90
22224;DHT22;11281;52.194;21.006;2023-08-20T07:26:09;25.60;99.90
22224;DHT22;11281;52.194;21.006;2023-08-20T07:30:13;25.60;99.90
22224;DHT22;11281;52.194;21.006;2023-08-20T07:34:15;25.50;99.90
22224;DHT22;11281;52.194;21.006;2023-08-20T07:38:17;25.50;99.90
22224;DHT22;11281;52.194;21.006;2023-08-20T07:42:18;25.60;99.90
22224;DHT22;11281;52.194;21.006;2023-08-20T07:46:20;25.50;99.90
22224;DHT22;11281;52.194;21.006;2023-08-20T07:50:22;25.70;99.90
22224;DHT22;11281;52.194;21.006;2023-08-20T07:54:24;25.60;99.90
22224;DHT22;11281;52.194;21.006;2023-08-20T07:58:25;25.80;99.90
22224;DHT22;11281;52.194;21.006;2023-08-20T08:02:27;26.10;99.90
22224;DHT22;11281;52.194;21.006;2023-08-20T08:06:28;26.30;99.90
22224;DHT22;11281;52.194;21.006;2023-08-20T08:10:30;26.40;99.90
22224;DHT22;11281;52.194;21.006;2023-08-20T08:14:32;26.50;99.90
22224;DHT22;11281;52.194;21.006;2023-08-20T08:18:34;26.60;99.90
22224;DHT22;11281;52.194;21.006;2023-08-20T08:22:36;26.60;99.90
22224;DHT22;11281;52.194;21.006;2023-08-20T08:26:38;26.80;99.90
22224;DHT22;11281;52.194;21.006;2023-08-20T08:30:40;26.70;99.90
22224;DHT22;11281;52.194;21.006;2023-08-20T08:34:42;26.90;99.90
22224;DHT22;11281;52.194;21.006;2023-08-20T08:38:44;27.00;99.90
22224;DHT22;11281;52.194;21.006;2023-08-20T08:42:48;27.20;99.90
22224;DHT22;11281;52.194;21.006;2023-08-20T08:46:53;27.30;99.90
22224;DHT22;11281;52.194;21.006;2023-08-20T08:50:54;27.20;99.90
22224;DHT22;11281;52.194;21.006;2023-08-20T08:54:57;27.30;99.90
22224;DHT22;11281;52.194;21.006;2023-08-20T08:59:17;27.30;99.90
22224;DHT22;11281;52.194;21.006;2023-08-20T09:03:22;27.40;99.90
22224;DHT22;11281;52.194;21.006;2023-08-20T09:07:25;27.60;99.90
22224;DHT22;11281;52.194;21.006;2023-08-20T09:11:34;27.80;99.90
22224;DHT22;11281;52.194;21.006;2023-08-20T09:15:37;27.60;99.90
22224;DHT22;11281;52.194;21.006;2023-08-20T09:19:38;27.70;99.90
22224;DHT22;11281;52.194;21.006;2023-08-20T09:23:40;28.00;99.90
22224;DHT22;11281;52.194;21.006;2023-08-20T09:27:46;27.90;99.90
22224;DHT22;11281;52.194;21.006;2023-08-20T09:31:48;28.10;99.90
22224;DHT22;11281;52.194;21.006;2023-08-20T09:35:51;28.00;99.90
22224;DHT22;11281;52.194;21.006;2023-08-20T09:39:53;28.20;99.90
22224;DHT22;11281;52.194;21.006;2023-08-20T09:43:58;28.30;99.90
22224;DHT22;11281;52.194;21.006;2023-08-20T09:48:02;28.30;99.90
22224;DHT22;11281;52.194;21.006;2023-08-20T09:52:07;28.50;99.90
22224;DHT22;11281;52.194;21.006;2023-08-20T09:56:18;28.40;99.90
22224;DHT22;11281;52.194;21.006;2023-08-20T10:00:24;28.80;99.90
22224;DHT22;11281;52.194;21.006;2023-08-20T10:04:26;28.80;99.90
22224;DHT22;11281;52.194;21.006;2023-08-20T10:08:28;28.90;99.90
22224;DHT22;11281;52.194;21.006;2023-08-20T10:12:31;28.60;99.90
22224;DHT22;11281;52.194;21.006;2023-08-20T10:16:33;28.60;99.90
22224;DHT22;11281;52.194;21.006;2023-08-20T10:20:35;28.40;99.90
22224;DHT22;11281;52.194;21.006;2023-08-20T10:24:41;28.60;99.90
22224;DHT22;11281;52.194;21.006;2023-08-20T10:28:45;28.50;99.90
22224;DHT22;11281;52.194;21.006;2023-08-20T10:32:49;28.80;99.90
22224;DHT22;11281;52.194;21.006;2023-08-20T10:36:51;29.00;99.90
22224;DHT22;11281;52.194;21.006;2023-08-20T10:40:55;29.00;99.90
22224;DHT22;11281;52.194;21.006;2023-08-20T10:45:08;29.00;99.90
22224;DHT22;11281;52.194;21.006;2023-08-20T10:49:16;29.00;99.90
22224;DHT22;11281;52.194;21.006;2023-08-20T10:53:21;29.20;99.90
22224;DHT22;11281;52.194;21.006;2023-08-20T10:57:33;29.30;99.90
22224;DHT22;11281;52.194;21.006;2023-08-20T11:01:35;29.20;99.90
22224;DHT22;11281;52.194;21.006;2023-08-20T11:05:37;29.30;99.90
22224;DHT22;11281;52.194;21.006;2023-08-20T11:09:39;29.50;99.90
22224;DHT22;11281;52.194;21.006;2023-08-20T11:13:41;29.80;99.90
22224;DHT22;11281;52.194;21.006;2023-08-20T11:17:47;29.50;99.90
22224;DHT22;11281;52.194;21.006;2023-08-20T11:21:50;29.40;99.90
22224;DHT22;11281;52.194;21.006;2023-08-20T11:25:52;29.30;99.90
22224;DHT22;11281;52.194;21.006;2023-08-20T11:29:54;29.60;99.90
22224;DHT22;11281;52.194;21.006;2023-08-20T11:33:57;29.80;99.90
22224;DHT22;11281;52.194;21.006;2023-08-20T11:37:59;29.80;99.90
22224;DHT22;11281;52.194;21.006;2023-08-20T11:42:02;29.90;99.90
22224;DHT22;11281;52.194;21.006;2023-08-20T11:46:03;29.90;99.90
22224;DHT22;11281;52.194;21.006;2023-08-20T11:50:06;30.10;99.90
22224;DHT22;11281;52.194;21.006;2023-08-20T11:54:11;30.00;99.90
22224;DHT22;11281;52.194;21.006;2023-08-20T11:58:13;30.20;99.90
22224;DHT22;11281;52.194;21.006;2023-08-20T12:02:15;30.00;99.90
22224;DHT22;11281;52.194;21.006;2023-08-20T12:06:18;30.00;99.90
22224;DHT22;11281;52.194;21.006;2023-08-20T12:10:21;30.00;99.90
22224;DHT22;11281;52.194;21.006;2023-08-20T12:14:24;30.00;99.90
22224;DHT22;11281;52.194;21.006;2023-08-20T12:18:26;30.00;99.90
22224;DHT22;11281;52.194;21.006;2023-08-20T12:22:28;29.90;99.90
22224;DHT22;11281;52.194;21.006;2023-08-20T12:26:29;30.10;99.90
22224;DHT22;11281;52.194;21.006;2023-08-20T12:30:32;30.00;99.90
22224;DHT22;11281;52.194;21.006;2023-08-20T12:34:35;30.20;99.90
22224;DHT22;11281;52.194;21.006;2023-08-20T12:38:36;30.20;99.90
22224;DHT22;11281;52.194;21.006;2023-08-20T12:42:38;30.20;99.90
22224;DHT22;11281;52.194;21.006;2023-08-20T12:46:40;30.20;99.90
22224;DHT22;11281;52.194;21.006;2023-08-20T12:50:42;30.30;99.90
22224;DHT22;11281;52.194;21.006;2023-08-20T12:54:43;30.50;99.90
22224;DHT22;11281;52.194;21.006;2023-08-20T12:58:45;30.30;99.90
22224;DHT22;11281;52.194;21.006;2023-08-20T13:02:47;30.50;99.90
22224;DHT22;11281;52.194;21.006;2023-08-20T13:06:50;30.40;99.90
22224;DHT22;11281;52.194;21.006;2023-08-20T13:10:57;30.50;99.90
22224;DHT22;11281;52.194;21.006;2023-08-20T13:14:59;30.60;99.90
22224;DHT22;11281;52.194;21.006;2023-08-20T13:19:01;30.50;99.90
22224;DHT22;11281;52.194;21.006;2023-08-20T13:23:04;30.60;99.90
22224;DHT22;11281;52.194;21.006;2023-08-20T13:27:05;30.70;99.70
22224;DHT22;11281;52.194;21.006;2023-08-20T13:31:07;30.50;99.30
22224;DHT22;11281;52.194;21.006;2023-08-20T13:35:09;30.50;99.90
22224;DHT22;11281;52.194;21.006;2023-08-20T13:39:10;30.70;99.90
22224;DHT22;11281;52.194;21.006;2023-08-20T13:43:15;30.70;99.90
22224;DHT22;11281;52.194;21.006;2023-08-20T13:47:17;30.80;98.70
22224;DHT22;11281;52.194;21.006;2023-08-20T13:51:19;30.50;99.90
22224;DHT22;11281;52.194;21.006;2023-08-20T13:55:21;30.50;99.90
22224;DHT22;11281;52.194;21.006;2023-08-20T13:59:23;30.70;99.90
22224;DHT22;11281;52.194;21.006;2023-08-20T14:03:25;30.50;99.90
22224;DHT22;11281;52.194;21.006;2023-08-20T14:07:26;30.30;99.90
22224;DHT22;11281;52.194;21.006;2023-08-20T14:11:29;30.40;99.90
22224;DHT22;11281;52.194;21.006;2023-08-20T14:15:31;30.50;99.90
22224;DHT22;11281;52.194;21.006;2023-08-20T14:19:33;30.30;99.90
22224;DHT22;11281;52.194;21.006;2023-08-20T14:23:34;30.40;99.90
22224;DHT22;11281;52.194;21.006;2023-08-20T14:27:36;30.30;99.90
22224;DHT22;11281;52.194;21.006;2023-08-20T14:31:37;30.40;99.90
22224;DHT22;11281;52.194;21.006;2023-08-20T14:35:39;30.40;99.90
22224;DHT22;11281;52.194;21.006;2023-08-20T14:39:41;30.60;99.90
22224;DHT22;11281;52.194;21.006;2023-08-20T14:43:42;30.50;99.90
22224;DHT22;11281;52.194;21.006;2023-08-20T14:47:46;30.60;99.90
22224;DHT22;11281;52.194;21.006;2023-08-20T14:51:49;30.50;99.90
22224;DHT22;11281;52.194;21.006;2023-08-20T14:55:51;30.60;99.90
22224;DHT22;11281;52.194;21.006;2023-08-20T14:59:52;30.50;99.90
22224;DHT22;11281;52.194;21.006;2023-08-20T15:03:54;30.30;99.90
22224;DHT22;11281;52.194;21.006;2023-08-20T15:07:55;30.20;99.90
22224;DHT22;11281;52.194;21.006;2023-08-20T15:11:57;30.20;99.90
22224;DHT22;11281;52.194;21.006;2023-08-20T15:15:58;30.10;99.90
22224;DHT22;11281;52.194;21.006;2023-08-20T15:20:00;29.90;99.90
22224;DHT22;11281;52.194;21.006;2023-08-20T15:24:02;29.80;99.90
22224;DHT22;11281;52.194;21.006;2023-08-20T15:28:05;29.70;99.90
22224;DHT22;11281;52.194;21.006;2023-08-20T15:32:06;29.40;99.90
22224;DHT22;11281;52.194;21.006;2023-08-20T15:36:08;29.10;99.90
22224;DHT22;11281;52.194;21.006;2023-08-20T15:40:10;28.60;99.90
22224;DHT22;11281;52.194;21.006;2023-08-20T15:44:15;28.40;99.90
22224;DHT22;11281;52.194;21.006;2023-08-20T15:48:16;28.10;99.90
22224;DHT22;11281;52.194;21.006;2023-08-20T15:52:19;28.00;99.90
22224;DHT22;11281;52.194;21.006;2023-08-20T15:56:21;28.00;99.90
22224;DHT22;11281;52.194;21.006;2023-08-20T16:00:22;28.00;99.90
22224;DHT22;11281;52.194;21.006;2023-08-20T16:04:24;28.20;99.90
22224;DHT22;11281;52.194;21.006;2023-08-20T16:08:26;28.10;99.90
22224;DHT22;11281;52.194;21.006;2023-08-20T16:12:28;28.10;99.90
22224;DHT22;11281;52.194;21.006;2023-08-20T16:16:29;28.00;99.90
22224;DHT22;11281;52.194;21.006;2023-08-20T16:20:33;27.90;99.90
22224;DHT22;11281;52.194;21.006;2023-08-20T16:24:35;27.70;99.90
22224;DHT22;11281;52.194;21.006;2023-08-20T16:28:40;27.70;99.90
22224;DHT22;11281;52.194;21.006;2023-08-20T16:32:42;27.60;99.90
22224;DHT22;11281;52.194;21.006;2023-08-20T16:36:44;27.50;99.90
22224;DHT22;11281;52.194;21.006;2023-08-20T16:40:46;27.50;99.90
22224;DHT22;11281;52.194;21.006;2023-08-20T16:44:49;27.30;99.90
22224;DHT22;11281;52.194;21.006;2023-08-20T16:48:50;27.30;99.90
22224;DHT22;11281;52.194;21.006;2023-08-20T16:52:52;27.20;99.90
22224;DHT22;11281;52.194;21.006;2023-08-20T16:56:54;27.10;99.90
22224;DHT22;11281;52.194;21.006;2023-08-20T17:00:55;27.00;99.90
22224;DHT22;11281;52.194;21.006;2023-08-20T17:04:57;26.80;99.90
22224;DHT22;11281;52.194;21.006;2023-08-20T17:08:59;26.60;99.90
22224;DHT22;11281;52.194;21.006;2023-08-20T17:13:02;26.40;99.90
22224;DHT22;11281;52.194;21.006;2023-08-20T17:17:03;26.20;99.90
22224;DHT22;11281;52.194;21.006;2023-08-20T17:21:04;25.90;99.90
22224;DHT22;11281;52.194;21.006;2023-08-20T17:25:06;25.80;99.90
22224;DHT22;11281;52.194;21.006;2023-08-20T17:29:08;25.60;99.90
22224;DHT22;11281;52.194;21.006;2023-08-20T17:33:09;25.50;99.90
22224;DHT22;11281;52.194;21.006;2023-08-20T17:37:16;25.30;99.90
22224;DHT22;11281;52.194;21.006;2023-08-20T17:41:18;25.20;99.90
22224;DHT22;11281;52.194;21.006;2023-08-20T17:45:20;25.00;99.90
22224;DHT22;11281;52.194;21.006;2023-08-20T17:49:22;24.80;99.90
22224;DHT22;11281;52.194;21.006;2023-08-20T17:53:24;24.70;99.90
22224;DHT22;11281;52.194;21.006;2023-08-20T17:57:30;24.50;99.90
22224;DHT22;11281;52.194;21.006;2023-08-20T18:01:32;24.30;99.90
22224;DHT22;11281;52.194;21.006;2023-08-20T18:05:36;24.20;99.90
22224;DHT22;11281;52.194;21.006;2023-08-20T18:09:38;24.00;99.90
22224;DHT22;11281;52.194;21.006;2023-08-20T18:13:40;23.90;99.90
22224;DHT22;11281;52.194;21.006;2023-08-20T18:17:42;23.70;99.90
22224;DHT22;11281;52.194;21.006;2023-08-20T18:21:43;23.60;99.90
22224;DHT22;11281;52.194;21.006;2023-08-20T18:25:45;23.50;99.90
22224;DHT22;11281;52.194;21.006;2023-08-20T18:29:50;23.40;99.90
22224;DHT22;11281;52.194;21.006;2023-08-20T18:33:52;23.30;99.90
22224;DHT22;11281;52.194;21.006;2023-08-20T18:37:54;23.30;99.90
22224;DHT22;11281;52.194;21.006;2023-08-20T18:41:56;23.20;99.90
22224;DHT22;11281;52.194;21.006;2023-08-20T18:45:57;23.10;99.90
22224;DHT22;11281;52.194;21.006;2023-08-20T18:50:04;23.10;99.90
22224;DHT22;11281;52.194;21.006;2023-08-20T18:54:06;23.30;99.90
22224;DHT22;11281;52.194;21.006;2023-08-20T18:58:18;23.30;99.90
22224;DHT22;11281;52.194;21.006;2023-08-20T19:02:23;23.20;99.90
22224;DHT22;11281;52.194;21.006;2023-08-20T19:06:29;23.20;99.90
22224;DHT22;11281;52.194;21.006;2023-08-20T19:10:31;23.20;99.90
22224;DHT22;11281;52.194;21.006;2023-08-20T19:14:55;23.20;99.90
22224;DHT22;11281;52.194;21.006;2023-08-20T19:19:30;23.00;99.90
22224;DHT22;11281;52.194;21.006;2023-08-20T19:23:44;22.80;99.90
22224;DHT22;11281;52.194;21.006;2023-08-20T19:28:15;22.70;99.90
22224;DHT22;11281;52.194;21.006;2023-08-20T19:32:46;22.50;99.90
22224;DHT22;11281;52.194;21.006;2023-08-20T19:36:56;22.40;99.90
22224;DHT22;11281;52.194;21.006;2023-08-20T19:41:31;22.30;99.90
22224;DHT22;11281;52.194;21.006;2023-08-20T19:46:16;22.20;99.90
22224;DHT22;11281;52.194;21.006;2023-08-20T19:55:46;22.10;99.90
22224;DHT22;11281;52.194;21.006;2023-08-20T20:00:36;22.00;99.90
22224;DHT22;11281;52.194;21.006;2023-08-20T20:05:03;22.00;99.90
22224;DHT22;11281;52.194;21.006;2023-08-20T20:09:33;21.90;99.90
22224;DHT22;11281;52.194;21.006;2023-08-20T20:13:35;21.90;99.90
22224;DHT22;11281;52.194;21.006;2023-08-20T20:17:37;21.80;99.90
22224;DHT22;11281;52.194;21.006;2023-08-20T20:21:38;21.70;99.90
22224;DHT22;11281;52.194;21.006;2023-08-20T20:25:42;21.70;99.90
22224;DHT22;11281;52.194;21.006;2023-08-20T20:29:43;21.60;99.90
22224;DHT22;11281;52.194;21.006;2023-08-20T20:33:45;21.60;99.90
22224;DHT22;11281;52.194;21.006;2023-08-20T20:37:51;21.50;99.90
22224;DHT22;11281;52.194;21.006;2023-08-20T20:41:53;21.50;99.90
22224;DHT22;11281;52.194;21.006;2023-08-20T20:45:55;21.40;99.90
22224;DHT22;11281;52.194;21.006;2023-08-20T20:49:57;21.40;99.90
22224;DHT22;11281;52.194;21.006;2023-08-20T20:54:01;21.30;99.90
22224;DHT22;11281;52.194;21.006;2023-08-20T20:58:03;21.30;99.90
22224;DHT22;11281;52.194;21.006;2023-08-20T21:02:08;21.30;99.90
22224;DHT22;11281;52.194;21.006;2023-08-20T21:06:10;21.30;99.90
22224;DHT22;11281;52.194;21.006;2023-08-20T21:10:12;21.30;99.90
22224;DHT22;11281;52.194;21.006;2023-08-20T21:14:14;21.20;99.90
22224;DHT22;11281;52.194;21.006;2023-08-20T21:18:21;21.20;99.90
22224;DHT22;11281;52.194;21.006;2023-08-20T21:22:28;21.10;99.90
22224;DHT22;11281;52.194;21.006;2023-08-20T21:26:30;21.10;99.90
22224;DHT22;11281;52.194;21.006;2023-08-20T21:30:36;21.10;99.90
22224;DHT22;11281;52.194;21.006;2023-08-20T21:34:37;21.00;99.90
22224;DHT22;11281;52.194;21.006;2023-08-20T21:38:42;20.90;99.90
22224;DHT22;11281;52.194;21.006;2023-08-20T21:42:43;20.90;99.90
22224;DHT22;11281;52.194;21.006;2023-08-20T21:46:45;20.80;99.90
22224;DHT22;11281;52.194;21.006;2023-08-20T21:50:47;20.80;99.90
22224;DHT22;11281;52.194;21.006;2023-08-20T21:54:51;20.80;99.90
22224;DHT22;11281;52.194;21.006;2023-08-20T21:58:53;20.70;99.90
22224;DHT22;11281;52.194;21.006;2023-08-20T22:02:55;20.70;99.90
22224;DHT22;11281;52.194;21.006;2023-08-20T22:06:57;20.60;99.90
22224;DHT22;11281;52.194;21.006;2023-08-20T22:11:00;20.60;99.90
22224;DHT22;11281;52.194;21.006;2023-08-20T22:15:02;20.50;99.90
22224;DHT22;11281;52.194;21.006;2023-08-20T22:19:03;20.50;99.90
22224;DHT22;11281;52.194;21.006;2023-08-20T22:23:05;20.40;99.90
22224;DHT22;11281;52.194;21.006;2023-08-20T22:27:06;20.40;99.90
22224;DHT22;11281;52.194;21.006;2023-08-20T22:31:08;20.40;99.90
22224;DHT22;11281;52.194;21.006;2023-08-20T22:35:10;20.50;99.90
22224;DHT22;11281;52.194;21.006;2023-08-20T22:39:12;20.60;99.90
22224;DHT22;11281;52.194;21.006;2023-08-20T22:43:14;20.50;99.90
22224;DHT22;11281;52.194;21.006;2023-08-20T22:47:17;20.50;99.90
22224;DHT22;11281;52.194;21.006;2023-08-20T22:51:18;20.50;99.90
22224;DHT22;11281;52.194;21.006;2023-08-20T22:55:20;20.60;99.90
22224;DHT22;11281;52.194;21.006;2023-08-20T22:59:22;20.80;99.90
22224;DHT22;11281;52.194;21.006;2023-08-20T23:03:24;20.80;99.90
22224;DHT22;11281;52.194;21.006;2023-08-20T23:07:26;20.70;99.90
22224;DHT22;11281;52.194;21.006;2023-08-20T23:11:27;20.60;99.90
22224;DHT22;11281;52.194;21.006;2023-08-20T23:15:30;20.60;99.90
22224;DHT22;11281;52.194;21.006;2023-08-20T23:19:32;20.50;99.90
22224;DHT22;11281;52.194;21.006;2023-08-20T23:23:33;20.40;99.90
22224;DHT22;11281;52.194;21.006;2023-08-20T23:27:35;20.40;99.90
22224;DHT22;11281;52.194;21.006;2023-08-20T23:31:37;20.40;99.90
22224;DHT22;11281;52.194;21.006;2023-08-20T23:35:39;20.30;99.90
22224;DHT22;11281;52.194;21.006;2023-08-20T23:39:43;20.20;99.90
22224;DHT22;11281;52.194;21.006;2023-08-20T23:43:45;20.20;99.90
22224;DHT22;11281;52.194;21.006;2023-08-20T23:47:47;20.10;99.90
22224;DHT22;11281;52.194;21.006;2023-08-20T23:51:49;20.00;99.90
22224;DHT22;11281;52.194;21.006;2023-08-20T23:55:50;20.00;99.90
22224;DHT22;11281;52.194;21.006;2023-08-20T23:59:52;19.90;99.90
